Time;durP1;ratioP1;P1;durP2;ratioP2;P2;SDS_P1;SDS_P2;PMS_P1;PMS_P2;Temp;Humidity;BMP_temperature;BMP_pressure;BME280_temperature;BME280_humidity;BME280_pressure;Samples;Min_cycle;Max_cycle;Signal;HPM_P1;HPM_P2
2022/12/30 00:01:28;;;;;;;24.90;13.25;;;;;;;0.07;80.87;99251.91;5101120;27;20050;-67
2022/12/30 00:03:53;;;;;;;23.92;13.32;;;;;;;0.10;80.92;99246.56;5101011;27;20035;-67
2022/12/30 00:06:21;;;;;;;24.08;13.48;;;;;;;0.17;80.59;99254.13;5108449;27;20412;-67
2022/12/30 00:08:50;;;;;;;20.50;11.88;;;;;;;0.21;80.99;99247.88;5095051;27;20071;-68
2022/12/30 00:11:25;;;;;;;25.95;14.15;;;;;;;0.21;80.91;99257.50;5131273;27;20099;-68
2022/12/30 00:33:25;;;;;;;;;;;;;;;0.48;80.32;99232.03;5121197;27;20043;-66
2022/12/30 00:35:50;;;;;;;25.17;12.77;;;;;;;0.41;80.88;99236.66;5082511;27;19917;-65
2022/12/30 00:38:14;;;;;;;21.70;12.75;;;;;;;0.41;80.46;99227.94;5100711;27;20046;-65
2022/12/30 00:43:07;;;;;;;23.52;14.77;;;;;;;0.40;80.33;99229.72;5084309;27;20389;-65
2022/12/30 00:43:23;;;;;;;28.58;15.00;;;;;;;0.31;80.50;99230.06;5118011;27;20038;-65
2022/12/30 00:45:48;;;;;;;25.55;14.90;;;;;;;0.26;80.75;99227.59;5099985;27;20035;-66
2022/12/30 00:56:22;;;;;;;24.88;14.32;;;;;;;0.29;80.70;99222.25;5081875;27;20031;-69
2022/12/30 00:58:48;;;;;;;29.17;15.60;;;;;;;0.29;80.91;99222.25;5117280;27;20043;-70
2022/12/30 01:01:12;;;;;;;29.00;15.38;;;;;;;0.31;81.04;99214.31;5098560;27;20042;-64
2022/12/30 01:03:37;;;;;;;29.90;15.48;;;;;;;0.34;80.83;99217.66;5081006;27;20034;-67
2022/12/30 01:06:09;;;;;;;28.00;14.43;;;;;;;0.36;80.75;99217.59;5076971;27;20573;-67
2022/12/30 01:08:34;;;;;;;31.77;15.25;;;;;;;0.29;81.20;99214.38;5070871;27;20039;-66
2022/12/30 01:11:03;;;;;;;32.45;16.88;;;;;;;0.30;81.07;99218.72;5086383;27;20038;-65
2022/12/30 01:13:28;;;;;;;30.25;15.60;;;;;;;0.33;80.50;99220.38;5095547;27;20134;-65
2022/12/30 01:15:52;;;;;;;25.15;13.88;;;;;;;0.35;80.44;99210.66;5098563;27;20034;-64
2022/12/30 01:18:17;;;;;;;32.58;15.07;;;;;;;0.40;80.69;99215.75;5098602;27;20038;-70
2022/12/30 01:20:41;;;;;;;29.27;15.77;;;;;;;0.43;80.54;99216.50;5116811;27;20046;-71
2022/12/30 01:23:06;;;;;;;30.48;16.00;;;;;;;0.45;80.66;99217.28;5113004;27;20041;-75
2022/12/30 01:25:31;;;;;;;27.45;14.32;;;;;;;0.47;80.43;99217.22;5114466;27;20489;-71
2022/12/30 01:27:56;;;;;;;30.63;15.75;;;;;;;0.46;80.21;99218.13;5098536;27;20073;-74
2022/12/30 01:30:20;;;;;;;28.17;15.48;;;;;;;0.46;80.09;99223.38;5098965;27;20070;-73
2022/12/30 01:32:45;;;;;;;31.50;15.68;;;;;;;0.46;80.14;99233.84;5078906;27;20031;-73
2022/12/30 01:35:12;;;;;;;28.25;15.55;;;;;;;0.48;80.47;99213.69;5094478;27;20049;-73
2022/12/30 01:37:37;;;;;;;27.27;15.52;;;;;;;0.45;80.42;99214.69;5117292;27;20069;-72
2022/12/30 01:40:02;;;;;;;34.90;17.05;;;;;;;0.46;79.88;99213.72;5117109;27;20073;-72
2022/12/30 01:42:35;;;;;;;32.17;16.15;;;;;;;0.51;80.31;99206.56;5117506;27;20456;-74
2022/12/30 01:45:18;;;;;;;34.80;17.70;;;;;;;0.51;80.69;99210.94;5117300;27;20046;-76
2022/12/30 01:48:09;;;;;;;31.90;16.35;;;;;;;0.43;80.33;99202.53;5117368;27;20504;-73
2022/12/30 01:51:00;;;;;;;26.23;12.55;;;;;;;0.41;80.71;99193.84;5117042;27;20184;-72
2022/12/30 01:53:24;;;;;;;33.38;17.02;;;;;;;0.32;81.21;99185.44;5094105;27;20038;-72
2022/12/30 01:55:57;;;;;;;37.55;17.15;;;;;;;0.29;80.84;99179.44;5097892;27;20046;-74
2022/12/30 01:58:43;;;;;;;33.42;17.50;;;;;;;0.18;80.89;99177.22;5116679;27;20671;-73
2022/12/30 02:01:08;;;;;;;34.88;16.70;;;;;;;0.11;81.34;99178.38;5077683;27;20134;-73
2022/12/30 02:03:44;;;;;;;37.40;18.23;;;;;;;0.11;81.67;99185.38;5075725;27;20179;-73
2022/12/30 02:06:09;;;;;;;32.30;16.00;;;;;;;0.09;81.97;99185.41;5091083;27;20042;-74
2022/12/30 02:08:34;;;;;;;40.67;18.92;;;;;;;0.11;81.58;99174.88;5083337;27;20118;-75
2022/12/30 02:10:59;;;;;;;32.45;16.77;;;;;;;0.14;82.13;99190.47;5073186;27;20046;-72
2022/12/30 02:13:24;;;;;;;28.77;14.80;;;;;;;0.20;81.89;99187.66;5109776;27;20031;-74
2022/12/30 02:16:07;;;;;;;31.65;14.88;;;;;;;0.31;81.59;99180.25;5088775;27;20141;-66
2022/12/30 02:19:05;;;;;;;33.05;14.95;;;;;;;0.20;81.75;99174.53;5113209;27;20030;-66
2022/12/30 02:22:07;;;;;;;41.10;18.88;;;;;;;0.17;81.82;99179.88;5115853;27;20430;-66
2022/12/30 02:25:09;;;;;;;35.65;18.13;;;;;;;0.14;81.59;99175.59;5106686;27;20493;-66
2022/12/30 02:27:47;;;;;;;38.75;18.65;;;;;;;0.04;81.78;99178.63;5103853;27;20066;-66
2022/12/30 02:30:38;;;;;;;37.42;16.02;;;;;;;0.05;81.88;99172.47;5077757;27;20075;-66
2022/12/30 02:33:13;;;;;;;33.90;16.52;;;;;;;-0.03;81.67;99168.38;4995017;28;20139;-67
2022/12/30 02:36:06;;;;;;;34.25;18.10;;;;;;;0.01;82.24;99169.09;5012316;28;20055;-68
2022/12/30 02:38:41;;;;;;;34.95;17.63;;;;;;;0.06;82.26;99163.69;4978940;28;20048;-68
2022/12/30 02:44:57;;;;;;;29.92;15.20;;;;;;;0.13;82.51;99157.31;5012234;28;20053;-69
2022/12/30 02:47:25;;;;;;;33.50;15.57;;;;;;;0.14;82.72;99161.66;4991621;28;20108;-69
2022/12/30 02:52:46;;;;;;;31.50;15.45;;;;;;;0.22;82.18;99168.34;4995331;28;19947;-71
2022/12/30 02:55:11;;;;;;;29.67;14.38;;;;;;;0.12;82.08;99166.94;4978756;28;20123;-70
2022/12/30 02:57:36;;;;;;;41.33;18.88;;;;;;;0.07;81.95;99168.03;5011481;28;20053;-69
2022/12/30 03:06:13;;;;;;;36.35;17.05;;;;;;;0.03;82.69;99159.41;5011952;28;20044;-65
2022/12/30 03:08:51;;;;;;;37.20;16.90;;;;;;;0.09;82.94;99167.06;4961926;28;20061;-66
2022/12/30 03:11:17;;;;;;;31.83;15.05;;;;;;;0.07;82.44;99161.03;5108459;27;20089;-65
2022/12/30 03:13:54;;;;;;;33.13;17.10;;;;;;;0.05;82.38;99160.22;5116508;27;20046;-68
2022/12/30 03:16:30;;;;;;;33.90;16.30;;;;;;;0.13;82.79;99162.56;5105079;27;20076;-70
2022/12/30 03:18:58;;;;;;;32.25;15.90;;;;;;;0.02;82.28;99154.22;5053373;27;20065;-72
2022/12/30 03:21:26;;;;;;;35.08;17.48;;;;;;;-0.06;82.38;99157.16;5095995;27;20125;-71
2022/12/30 03:29:27;;;;;;;32.15;15.25;;;;;;;-0.02;83.01;99158.75;5100922;27;20412;-72
2022/12/30 03:31:52;;;;;;;32.67;15.30;;;;;;;-0.05;83.14;99156.22;5101271;27;20037;-71
2022/12/30 03:34:18;;;;;;;31.77;15.40;;;;;;;-0.07;82.86;99165.91;5101056;27;20391;-71
2022/12/30 03:36:46;;;;;;;29.02;15.13;;;;;;;-0.11;83.08;99164.31;5100552;27;20088;-73
2022/12/30 03:39:17;;;;;;;30.08;16.40;;;;;;;-0.06;83.63;99165.84;5119467;27;20132;-70
2022/12/30 03:41:45;;;;;;;33.28;16.13;;;;;;;0.00;83.29;99152.53;5101022;27;20050;-70
2022/12/30 03:44:11;;;;;;;29.27;15.20;;;;;;;0.07;83.48;99161.03;5119503;27;20046;-71
2022/12/30 03:46:36;;;;;;;32.90;16.13;;;;;;;-0.03;83.26;99152.66;5100939;27;20050;-71
2022/12/30 03:49:00;;;;;;;38.40;17.45;;;;;;;0.04;83.24;99155.91;5119551;27;20094;-69
2022/12/30 03:51:25;;;;;;;31.98;15.68;;;;;;;-0.04;82.75;99152.72;5083929;27;20047;-70
2022/12/30 03:53:50;;;;;;;38.92;18.23;;;;;;;-0.11;83.19;99164.31;5100532;27;20034;-69
2022/12/30 03:56:15;;;;;;;36.30;15.52;;;;;;;-0.04;83.10;99160.56;5101144;27;20034;-73
2022/12/30 03:58:40;;;;;;;48.03;19.25;;;;;;;-0.07;82.93;99158.91;5101465;27;20055;-71
2022/12/30 04:01:04;;;;;;;32.05;16.17;;;;;;;-0.10;83.05;99158.16;5120016;27;20054;-71
2022/12/30 04:03:29;;;;;;;33.33;17.05;;;;;;;-0.04;83.17;99152.72;5083846;27;20030;-69
2022/12/30 04:05:54;;;;;;;34.50;16.55;;;;;;;-0.04;83.28;99156.19;5100318;27;20039;-69
2022/12/30 04:08:20;;;;;;;32.10;16.33;;;;;;;-0.09;82.96;99152.88;5100732;27;20031;-70
2022/12/30 04:10:44;;;;;;;27.60;14.40;;;;;;;-0.06;83.30;99157.16;5100165;27;20043;-70
2022/12/30 04:13:09;;;;;;;33.72;17.80;;;;;;;0.06;83.29;99154.06;5082670;27;20034;-72
2022/12/30 04:15:34;;;;;;;30.42;14.05;;;;;;;0.06;82.62;99146.22;5100018;27;20540;-66
2022/12/30 04:17:58;;;;;;;29.23;15.45;;;;;;;-0.02;83.09;99143.88;5070597;27;20046;-67
2022/12/30 04:20:23;;;;;;;29.48;14.80;;;;;;;0.01;82.96;99145.50;5116130;27;20492;-67
2022/12/30 04:22:47;;;;;;;32.63;15.38;;;;;;;0.03;83.15;99135.84;5062214;27;20042;-66
2022/12/30 04:25:12;;;;;;;27.02;14.82;;;;;;;0.03;83.29;99127.97;5079420;27;20138;-67
2022/12/30 04:27:37;;;;;;;28.23;15.25;;;;;;;0.02;83.19;99120.16;5106927;27;20404;-66
2022/12/30 04:30:02;;;;;;;30.23;15.52;;;;;;;0.11;82.95;99118.09;5088132;27;20051;-67
2022/12/30 04:32:28;;;;;;;32.28;15.05;;;;;;;0.14;83.23;99107.47;5100776;27;20087;-66
2022/12/30 04:34:53;;;;;;;35.05;15.00;;;;;;;0.22;83.03;99101.94;5099829;27;20078;-68
2022/12/30 04:37:18;;;;;;;31.45;15.60;;;;;;;0.12;82.84;99104.03;5078615;27;20042;-69
2022/12/30 04:39:43;;;;;;;28.42;14.38;;;;;;;0.09;83.15;99096.31;5099239;27;20179;-67
2022/12/30 04:42:07;;;;;;;30.75;16.83;;;;;;;0.15;82.99;99106.56;5099568;27;20393;-73
2022/12/30 04:44:32;;;;;;;34.67;17.50;;;;;;;0.11;82.61;99098.88;5118779;27;20038;-71
2022/12/30 04:46:57;;;;;;;33.50;15.57;;;;;;;0.09;82.80;99096.31;5118264;27;20170;-73
2022/12/30 04:49:21;;;;;;;16.40;7.45;;;;;;;0.19;83.22;99094.19;5118167;27;20042;-73
2022/12/30 04:51:46;;;;;;;30.60;15.60;;;;;;;0.13;83.01;99103.13;5099663;27;20042;-72
2022/12/30 04:54:10;;;;;;;34.20;15.95;;;;;;;0.08;82.99;99107.72;5118468;27;20508;-72
2022/12/30 04:56:35;;;;;;;30.90;15.95;;;;;;;0.06;82.83;99101.66;5117807;27;20089;-71
2022/12/30 04:59:00;;;;;;;29.67;15.88;;;;;;;-0.03;83.15;99104.63;5074336;27;20079;-67
2022/12/30 05:01:24;;;;;;;30.70;16.50;;;;;;;0.00;83.20;99094.06;5080815;27;20122;-69
2022/12/30 05:03:49;;;;;;;37.53;15.90;;;;;;;0.07;83.34;99103.38;5118199;27;20046;-67
2022/12/30 05:06:14;;;;;;;33.15;15.75;;;;;;;0.11;83.35;99101.50;5100610;27;20046;-67
2022/12/30 05:08:38;;;;;;;34.08;16.63;;;;;;;0.14;82.96;99096.13;5101607;27;20034;-67
2022/12/30 05:11:03;;;;;;;30.17;15.90;;;;;;;0.06;82.83;99098.19;5101009;27;20042;-67
2022/12/30 05:13:28;;;;;;;34.40;16.70;;;;;;;0.08;83.06;99093.75;5083610;27;20030;-67
2022/12/30 05:15:53;;;;;;;31.63;16.40;;;;;;;0.06;83.41;99100.81;5118337;27;20046;-69
2022/12/30 05:18:17;;;;;;;29.90;15.07;;;;;;;0.12;83.17;99095.31;5068381;27;20043;-70
2022/12/30 05:20:42;;;;;;;33.30;17.13;;;;;;;0.07;83.14;99103.38;5099749;27;20058;-69
2022/12/30 05:26:13;;;;;;;29.60;15.80;;;;;;;0.12;83.16;99100.56;5079500;27;20494;-69
2022/12/30 05:26:36;;;;;;;26.25;13.55;;;;;;;0.12;83.26;99093.56;5106661;27;20039;-72
2022/12/30 05:28:36;;;;;;;31.38;15.50;;;;;;;0.20;82.60;99103.78;5085793;27;20050;-72
2022/12/30 05:31:00;;;;;;;29.05;14.80;;;;;;;0.07;82.51;99094.66;5099766;27;20046;-71
2022/12/30 05:33:25;;;;;;;33.95;17.67;;;;;;;-0.03;83.13;99105.50;5082156;27;20030;-72
2022/12/30 05:35:50;;;;;;;33.25;15.85;;;;;;;0.09;82.77;99103.31;5100250;27;20045;-72
2022/12/30 05:38:14;;;;;;;33.83;18.17;;;;;;;-0.08;83.14;99111.78;5099554;27;20622;-72
2022/12/30 05:40:39;;;;;;;40.00;20.33;;;;;;;-0.12;83.18;99112.84;5100375;27;20479;-71
2022/12/30 05:43:03;;;;;;;45.22;18.88;;;;;;;-0.19;83.42;99121.81;5118197;27;20193;-67
2022/12/30 05:45:28;;;;;;;36.28;16.73;;;;;;;-0.11;83.52;99122.38;5079249;27;20043;-67
2022/12/30 05:47:53;;;;;;;33.60;17.73;;;;;;;-0.18;83.85;99119.16;5082614;27;20045;-67
2022/12/30 05:50:17;;;;;;;30.80;17.58;;;;;;;-0.04;84.00;99122.13;5119246;27;20049;-68
2022/12/30 05:52:42;;;;;;;33.40;17.85;;;;;;;-0.10;83.71;99114.47;5099541;27;20404;-68
2022/12/30 05:55:07;;;;;;;33.60;18.35;;;;;;;-0.13;83.35;99113.75;5118228;27;20404;-67
2022/12/30 05:57:31;;;;;;;41.08;19.90;;;;;;;-0.10;83.80;99116.22;5117529;27;20054;-68
2022/12/30 05:59:56;;;;;;;29.85;16.00;;;;;;;-0.07;83.63;99111.75;5084609;27;20091;-68
2022/12/30 06:02:21;;;;;;;31.20;16.00;;;;;;;0.11;83.22;99107.59;5114898;27;20134;-67
2022/12/30 06:04:45;;;;;;;27.98;13.43;;;;;;;0.12;83.45;99096.19;5122417;27;20052;-67
2022/12/30 06:07:10;;;;;;;33.97;15.90;;;;;;;0.11;82.96;99091.03;5074393;27;20034;-67
2022/12/30 06:09:34;;;;;;;29.60;15.25;;;;;;;0.12;82.91;99097.94;5110402;27;20416;-68
2022/12/30 06:11:59;;;;;;;30.30;16.92;;;;;;;-0.07;83.44;99103.03;5081672;27;20034;-68
2022/12/30 06:14:23;;;;;;;28.38;13.77;;;;;;;0.05;83.15;99102.56;5079274;27;20500;-69
2022/12/30 06:16:48;;;;;;;34.50;16.75;;;;;;;0.05;83.04;99101.72;5114340;27;20126;-68
2022/12/30 06:19:13;;;;;;;28.83;15.50;;;;;;;0.00;83.26;99112.41;5101819;27;20046;-68
2022/12/30 06:21:38;;;;;;;32.50;14.90;;;;;;;-0.03;83.20;99099.41;5126762;27;20034;-67
2022/12/30 06:24:03;;;;;;;32.67;15.98;;;;;;;-0.14;83.95;99106.78;5092469;27;20054;-66
2022/12/30 06:26:27;;;;;;;33.13;17.75;;;;;;;-0.09;84.09;99105.69;5088767;27;20049;-66
2022/12/30 06:28:52;;;;;;;27.90;16.30;;;;;;;-0.11;83.85;99117.16;5064683;27;20093;-66
2022/12/30 06:31:17;;;;;;;33.72;16.55;;;;;;;-0.05;83.98;99114.31;5068839;27;20066;-67
2022/12/30 06:33:41;;;;;;;25.17;14.30;;;;;;;0.05;83.41;99106.97;5099383;27;20038;-70
2022/12/30 06:36:06;;;;;;;31.50;17.38;;;;;;;-0.01;83.64;99108.06;5084624;27;20041;-68
2022/12/30 06:38:31;;;;;;;26.58;14.80;;;;;;;-0.03;83.82;99102.88;5099223;27;20045;-71
2022/12/30 06:40:56;;;;;;;30.80;15.85;;;;;;;0.07;83.61;99100.75;5080352;27;20492;-68
2022/12/30 06:43:20;;;;;;;31.85;16.67;;;;;;;-0.12;83.93;99100.59;5097536;27;20531;-67
2022/12/30 06:45:45;;;;;;;26.08;12.68;;;;;;;0.02;84.05;99091.34;5119445;27;20512;-66
2022/12/30 06:48:10;;;;;;;31.33;15.77;;;;;;;0.02;84.03;99086.97;5121687;27;20038;-68
2022/12/30 06:50:36;;;;;;;28.05;15.27;;;;;;;0.07;83.97;99087.66;5106163;27;20799;-67
2022/12/30 06:53:00;;;;;;;24.10;14.82;;;;;;;0.06;83.69;99095.56;5090585;27;20060;-67
2022/12/30 06:55:25;;;;;;;30.08;14.20;;;;;;;0.07;83.99;99089.41;5105247;27;20026;-69
2022/12/30 06:57:50;;;;;;;29.63;15.93;;;;;;;0.18;84.01;99088.09;5120315;27;20069;-75
2022/12/30 07:00:15;;;;;;;27.55;15.30;;;;;;;0.11;83.90;99091.88;5101877;27;20047;-69
2022/12/30 07:02:39;;;;;;;26.73;14.98;;;;;;;0.26;84.13;99087.78;5102381;27;20091;-71
2022/12/30 07:05:05;;;;;;;28.25;16.10;;;;;;;0.14;84.01;99077.78;5083267;27;20043;-70
2022/12/30 07:07:30;;;;;;;25.15;14.30;;;;;;;0.20;83.87;99090.66;5101897;27;20042;-70
2022/12/30 07:09:54;;;;;;;27.85;14.75;;;;;;;0.31;83.56;99084.09;5066455;27;20087;-67
2022/12/30 07:12:19;;;;;;;24.50;13.57;;;;;;;0.31;83.42;99093.72;5089476;28;20046;-67
2022/12/30 07:14:44;;;;;;;29.10;16.20;;;;;;;0.03;83.57;99099.16;5060257;28;20050;-67
2022/12/30 07:17:08;;;;;;;25.45;14.10;;;;;;;0.07;83.69;99095.50;5078260;28;20039;-67
2022/12/30 07:19:33;;;;;;;36.55;17.67;;;;;;;0.10;84.01;99095.41;5092048;27;20042;-67
2022/12/30 07:21:58;;;;;;;27.77;14.95;;;;;;;0.08;84.08;99102.47;5117093;27;20039;-67
2022/12/30 07:24:23;;;;;;;25.92;13.68;;;;;;;0.18;83.98;99103.81;5097296;27;20041;-67
2022/12/30 07:26:47;;;;;;;23.55;14.43;;;;;;;0.34;83.53;99107.53;5097241;27;20408;-69
2022/12/30 07:29:12;;;;;;;23.13;13.50;;;;;;;0.20;83.65;99109.88;5077729;28;20114;-68
2022/12/30 07:31:37;;;;;;;22.05;12.10;;;;;;;0.35;83.23;99103.16;5077273;28;20050;-68
2022/12/30 07:34:01;;;;;;;23.83;13.15;;;;;;;0.24;83.06;99108.81;5095969;27;20041;-69
2022/12/30 07:36:26;;;;;;;21.67;12.77;;;;;;;0.32;83.46;99106.78;5115862;27;20064;-67
2022/12/30 07:38:51;;;;;;;21.58;12.27;;;;;;;0.34;83.47;99104.94;5097414;27;20079;-67
2022/12/30 07:41:15;;;;;;;21.65;13.43;;;;;;;0.29;83.55;99100.78;5097446;27;20042;-69
2022/12/30 07:43:40;;;;;;;17.05;9.85;;;;;;;0.43;83.43;99097.63;5115699;27;20504;-68
2022/12/30 07:46:07;;;;;;;20.48;12.18;;;;;;;0.40;83.04;99097.75;5097012;27;20103;-68
2022/12/30 07:48:31;;;;;;;24.15;13.57;;;;;;;0.23;83.20;99096.63;5071604;28;20046;-69
2022/12/30 07:50:56;;;;;;;23.88;13.68;;;;;;;0.35;83.07;99092.66;5073952;27;20038;-68
2022/12/30 07:53:21;;;;;;;25.02;14.48;;;;;;;0.42;83.29;99088.91;5096785;27;20030;-69
2022/12/30 07:55:45;;;;;;;20.38;8.80;;;;;;;0.61;83.00;99096.91;5067552;28;20047;-68
2022/12/30 07:58:10;;;;;;;22.73;12.13;;;;;;;0.72;82.00;99103.41;5076925;27;20058;-68
2022/12/30 08:00:35;;;;;;;19.10;11.27;;;;;;;0.49;82.13;99103.47;5099187;27;20079;-68
2022/12/30 08:02:59;;;;;;;13.18;7.13;;;;;;;0.63;82.38;99118.69;5118793;27;20106;-68
2022/12/30 08:05:24;;;;;;;19.92;12.38;;;;;;;0.54;82.62;99111.19;5075940;27;20405;-70
2022/12/30 08:07:52;;;;;;;20.77;11.43;;;;;;;0.39;82.86;99107.38;5080866;27;20108;-68
2022/12/30 08:10:17;;;;;;;23.52;13.85;;;;;;;0.22;82.77;99102.81;5118036;27;20087;-69
2022/12/30 08:12:41;;;;;;;18.80;11.25;;;;;;;0.44;83.13;99096.72;5121287;27;20073;-69
2022/12/30 08:15:06;;;;;;;21.55;12.13;;;;;;;0.51;82.98;99098.19;5102203;27;20046;-66
2022/12/30 08:17:31;;;;;;;24.02;14.07;;;;;;;0.20;83.22;99104.63;5119854;27;20514;-66
2022/12/30 08:19:55;;;;;;;21.42;11.13;;;;;;;0.44;83.43;99094.09;5119326;27;20481;-65
2022/12/30 08:22:20;;;;;;;19.60;12.27;;;;;;;0.46;83.03;99102.75;5083898;27;20514;-65
2022/12/30 08:24:45;;;;;;;19.85;11.88;;;;;;;0.41;83.09;99100.31;5126868;27;20523;-68
2022/12/30 08:27:09;;;;;;;19.55;11.35;;;;;;;0.49;82.84;99089.50;5111164;27;20037;-68
2022/12/30 08:29:35;;;;;;;29.70;13.90;;;;;;;0.29;83.42;99091.16;5128517;27;20137;-70
2022/12/30 08:32:00;;;;;;;26.40;13.65;;;;;;;0.22;83.82;99087.06;5125809;27;20042;-68
2022/12/30 08:34:25;;;;;;;18.65;10.68;;;;;;;0.39;83.95;99096.91;5104161;27;20043;-68
2022/12/30 08:36:50;;;;;;;29.67;15.68;;;;;;;0.26;84.16;99088.66;5101430;27;20045;-68
2022/12/30 08:39:15;;;;;;;27.27;15.18;;;;;;;0.23;84.59;99091.38;5100463;27;20050;-66
2022/12/30 08:41:42;;;;;;;22.02;12.13;;;;;;;0.48;84.57;99080.78;5118434;27;20039;-68
2022/12/30 08:44:08;;;;;;;18.75;11.93;;;;;;;0.63;84.02;99081.97;5100079;27;20099;-67
2022/12/30 08:46:35;;;;;;;17.98;11.20;;;;;;;0.57;83.49;99085.66;5118622;27;20110;-68
2022/12/30 08:49:00;;;;;;;21.50;12.75;;;;;;;0.48;83.47;99087.81;5105942;27;20496;-68
2022/12/30 08:51:26;;;;;;;22.08;12.30;;;;;;;0.63;83.62;99084.59;5090218;27;20035;-67
2022/12/30 08:53:50;;;;;;;20.15;12.70;;;;;;;0.54;83.23;99084.97;5100940;27;20038;-69
2022/12/30 08:56:21;;;;;;;26.75;14.38;;;;;;;0.57;83.91;99092.69;5101157;27;20053;-68
2022/12/30 08:58:47;;;;;;;17.08;9.52;;;;;;;0.63;83.16;99092.44;5118402;27;20058;-67
2022/12/30 09:01:27;;;;;;;18.38;11.35;;;;;;;0.45;83.54;99090.56;5099164;27;20046;-67
2022/12/30 09:03:52;;;;;;;20.33;11.18;;;;;;;0.39;83.76;99082.94;5082319;27;20386;-67
2022/12/30 09:06:19;;;;;;;21.88;12.70;;;;;;;0.34;83.67;99086.56;5078928;27;20442;-67
2022/12/30 09:08:45;;;;;;;21.20;11.45;;;;;;;0.46;84.53;99087.00;5099478;27;20161;-68
2022/12/30 09:11:23;;;;;;;20.88;10.45;;;;;;;0.44;84.21;99071.34;5098489;27;20603;-66
2022/12/30 09:13:48;;;;;;;20.27;11.48;;;;;;;0.45;83.96;99072.22;5082013;27;20532;-68
2022/12/30 09:16:16;;;;;;;26.67;14.90;;;;;;;0.41;84.46;99058.38;5073982;27;20058;-66
2022/12/30 09:18:41;;;;;;;18.83;11.52;;;;;;;0.46;84.71;99068.66;5117310;27;20051;-67
2022/12/30 09:21:06;;;;;;;18.80;9.95;;;;;;;0.65;84.64;99059.16;5098896;27;20103;-66
2022/12/30 09:23:32;;;;;;;21.45;12.70;;;;;;;0.56;84.41;99052.50;5117659;27;20060;-66
2022/12/30 09:25:57;;;;;;;17.05;9.25;;;;;;;0.64;84.86;99060.06;5073284;27;20038;-66
2022/12/30 09:28:23;;;;;;;16.48;10.10;;;;;;;0.68;84.45;99053.75;5098129;27;20045;-67
2022/12/30 09:30:48;;;;;;;15.48;9.85;;;;;;;0.73;84.41;99055.28;5060961;27;20435;-67
2022/12/30 09:33:13;;;;;;;19.15;12.43;;;;;;;0.72;84.65;99064.06;5090442;27;20419;-66
2022/12/30 09:35:37;;;;;;;18.60;10.77;;;;;;;0.92;84.65;99057.13;5116975;27;20106;-67
2022/12/30 09:38:02;;;;;;;15.48;8.65;;;;;;;0.92;84.50;99055.38;5098943;27;20416;-66
2022/12/30 09:40:51;;;;;;;18.08;10.75;;;;;;;1.00;84.37;99045.44;5102382;27;20488;-66
2022/12/30 09:43:41;;;;;;;15.68;8.43;;;;;;;1.03;84.25;99047.91;5108421;27;20035;-66
2022/12/30 09:46:31;;;;;;;15.88;9.43;;;;;;;0.92;83.89;99050.13;5118490;27;20039;-67
2022/12/30 09:49:00;;;;;;;22.48;12.90;;;;;;;0.75;84.58;99041.25;5121714;27;20088;-69
2022/12/30 09:51:39;;;;;;;22.25;10.95;;;;;;;0.72;84.65;99047.47;5119321;27;20046;-70
2022/12/30 09:54:12;;;;;;;17.70;10.65;;;;;;;0.88;85.39;99045.94;5098729;27;20449;-67
2022/12/30 09:56:40;;;;;;;19.60;11.52;;;;;;;0.89;85.49;99039.78;5063930;27;20047;-67
2022/12/30 09:59:32;;;;;;;15.38;8.85;;;;;;;1.02;85.48;99035.69;5108382;27;20058;-68
2022/12/30 10:02:19;;;;;;;19.55;11.88;;;;;;;0.76;85.31;99041.19;5079482;27;20568;-66
2022/12/30 10:04:44;;;;;;;21.33;11.20;;;;;;;0.73;85.54;99046.56;5112092;27;20070;-68
2022/12/30 10:07:18;;;;;;;19.83;12.25;;;;;;;0.83;85.95;99034.78;5099031;27;20070;-66
2022/12/30 10:10:20;;;;;;;18.63;10.30;;;;;;;0.84;85.98;99041.72;5098771;27;20043;-66
2022/12/30 10:13:08;;;;;;;20.58;10.82;;;;;;;0.75;85.91;99042.13;5095453;27;20541;-66
2022/12/30 10:16:00;;;;;;;17.58;10.25;;;;;;;0.89;86.32;99044.16;5094494;27;20125;-66
2022/12/30 10:18:49;;;;;;;23.17;13.65;;;;;;;0.77;86.09;99040.28;5116345;27;20058;-67
2022/12/30 10:21:57;;;;;;;16.33;9.55;;;;;;;0.89;86.79;99039.78;5117001;27;20035;-67
2022/12/30 10:24:46;;;;;;;16.33;9.75;;;;;;;0.90;86.99;99031.00;5082127;27;20051;-68
2022/12/30 10:27:25;;;;;;;20.23;13.32;;;;;;;0.79;87.11;99033.19;5100143;27;20484;-67
2022/12/30 10:29:51;;;;;;;17.75;11.23;;;;;;;0.70;86.84;99033.56;5070340;27;20497;-67
2022/12/30 10:32:21;;;;;;;19.35;11.50;;;;;;;0.79;87.23;99033.19;5083480;27;20397;-67
2022/12/30 10:35:06;;;;;;;14.57;9.32;;;;;;;0.80;87.58;99034.03;5116912;27;20038;-67
2022/12/30 10:37:32;;;;;;;15.35;9.25;;;;;;;0.87;87.35;99031.13;5086948;27;20054;-68
2022/12/30 10:39:59;;;;;;;18.42;10.48;;;;;;;0.82;87.62;99027.81;5080431;27;20101;-67
2022/12/30 10:42:41;;;;;;;17.70;10.05;;;;;;;0.79;87.79;99016.63;5097147;27;20049;-67
2022/12/30 10:45:40;;;;;;;15.02;10.75;;;;;;;0.86;87.92;99005.78;5103843;27;20096;-68
2022/12/30 10:48:43;;;;;;;19.67;12.77;;;;;;;0.89;88.64;99004.81;5117448;27;20049;-67
2022/12/30 10:51:12;;;;;;;11.68;7.45;;;;;;;1.02;88.73;99008.59;5021025;28;20041;-67
2022/12/30 10:53:40;;;;;;;13.43;9.48;;;;;;;0.94;88.33;99010.69;4989806;28;20045;-68
2022/12/30 10:56:18;;;;;;;15.65;8.73;;;;;;;1.07;88.70;99017.13;5012683;28;20052;-66
2022/12/30 10:58:46;;;;;;;18.17;11.75;;;;;;;0.88;88.60;99006.59;4996020;28;20065;-68
2022/12/30 11:01:17;;;;;;;16.15;10.80;;;;;;;0.89;88.60;99021.41;5012238;28;20049;-67
2022/12/30 11:03:47;;;;;;;20.85;10.38;;;;;;;0.75;88.94;99015.88;4979048;28;20136;-67
2022/12/30 11:06:22;;;;;;;16.95;10.27;;;;;;;0.79;89.11;99021.88;5012652;28;20036;-65
2022/12/30 11:08:47;;;;;;;15.27;9.55;;;;;;;0.89;89.46;99020.56;4998356;28;20079;-67
2022/12/30 11:11:12;;;;;;;18.30;11.25;;;;;;;0.85;88.93;99022.44;4973276;28;20033;-66
2022/12/30 11:16:33;;;;;;;12.75;9.10;;;;;;;1.01;89.10;99013.03;4996391;28;20103;-66
2022/12/30 11:19:01;;;;;;;17.52;10.45;;;;;;;0.90;88.56;99017.00;4996032;28;20087;-65
2022/12/30 11:21:30;;;;;;;14.15;8.70;;;;;;;0.91;88.52;99027.41;5011787;28;20136;-64
2022/12/30 11:23:56;;;;;;;13.82;9.50;;;;;;;0.99;88.64;99017.47;5012241;28;20043;-65
2022/12/30 11:26:23;;;;;;;13.77;9.27;;;;;;;1.01;88.16;99028.75;5043278;27;20126;-65
2022/12/30 11:28:53;;;;;;;13.65;7.78;;;;;;;1.05;88.44;99027.69;5098665;27;20047;-66
2022/12/30 11:31:18;;;;;;;16.90;9.13;;;;;;;0.97;88.09;99019.31;5119284;27;20083;-66
2022/12/30 11:33:51;;;;;;;12.60;7.97;;;;;;;1.07;88.22;99022.38;5119965;27;20043;-67
2022/12/30 11:36:33;;;;;;;11.85;7.50;;;;;;;1.16;87.94;99021.13;5082465;27;20042;-66
2022/12/30 11:39:04;;;;;;;10.80;7.00;;;;;;;1.19;88.06;99021.00;5120603;27;20564;-67
2022/12/30 11:41:30;;;;;;;9.93;6.90;;;;;;;1.18;87.67;99027.16;5087070;27;20038;-66
2022/12/30 11:44:01;;;;;;;10.30;7.53;;;;;;;1.23;88.17;99027.84;5100569;27;20042;-68
2022/12/30 11:46:30;;;;;;;16.50;9.52;;;;;;;1.21;88.28;99027.91;5082644;27;20095;-70
2022/12/30 11:48:59;;;;;;;11.90;7.80;;;;;;;1.27;89.04;99026.75;5080529;27;20088;-70
2022/12/30 11:51:28;;;;;;;12.98;8.60;;;;;;;1.06;88.40;99018.06;5100464;27;20609;-69
2022/12/30 11:54:04;;;;;;;12.27;7.55;;;;;;;1.16;88.97;99024.59;5082991;27;20031;-68
2022/12/30 11:56:29;;;;;;;12.30;7.95;;;;;;;1.02;88.34;99022.56;5100605;27;20042;-66
2022/12/30 11:58:54;;;;;;;13.25;9.10;;;;;;;1.00;87.73;99037.56;5100015;27;20461;-66
2022/12/30 12:01:19;;;;;;;11.30;7.57;;;;;;;1.11;88.28;99033.63;5082709;27;20071;-66
2022/12/30 12:03:57;;;;;;;12.00;7.82;;;;;;;1.09;87.86;99029.28;5063561;27;20050;-65
2022/12/30 12:06:21;;;;;;;10.93;7.90;;;;;;;1.09;88.03;99031.06;5080189;27;20165;-67
2022/12/30 12:09:01;;;;;;;13.77;9.10;;;;;;;1.19;87.86;99026.25;5118668;27;20118;-67
2022/12/30 12:11:32;;;;;;;14.27;8.63;;;;;;;1.11;88.20;99028.38;5116321;27;20508;-66
2022/12/30 12:14:17;;;;;;;12.23;7.38;;;;;;;1.23;88.82;99033.94;5082426;27;20076;-66
2022/12/30 12:16:55;;;;;;;11.45;7.32;;;;;;;1.23;88.91;99030.47;5097156;27;20134;-68
2022/12/30 12:19:51;;;;;;;12.55;7.40;;;;;;;1.29;88.73;99022.31;5099847;27;20038;-68
2022/12/30 12:22:32;;;;;;;12.05;7.65;;;;;;;1.25;89.07;99020.72;5096959;27;20047;-67
2022/12/30 12:25:05;;;;;;;12.95;7.65;;;;;;;1.15;88.76;99032.53;5082516;27;20049;-67